Maple Beach, Washington
Current Conditions -  °F | °C
As of 8:35 AM on Sunday 21 Dec 2014 (Local Time) from KPWT Reporting Station
Clear Clear  
Wind Chill: 45°   Ceiling: Unl
Heat Index: 48°   Visibility: 10mi
Dew Point: 48°   Wind: 7mph
Humidity: 100%   Direction: 220°SW
Pressure: 29.89"   Gusts: NA
Location:  47.6282°N, 122.837°W
Report Text: KPWT 211635Z AUTO 22006KT 10SM CLR 09/09 A2989 RMK AO1
Loading
Personal Weather Stations






























Interactive Weather Map New forecast layout! Learn more

10-Day Weather Forecast

Advertisements
Track Severe Weather on mobile